METAR Data
IDs: Format: Raw Decoded Include TAF

Data at: 1024 UTC 28 Sep 2021

PABV 280956Z AUTO 08004KT 10SM CLR M01/M05 A2942 RMK AO2 SLP970 T10111050 FZRANO